Time;durP1;ratioP1;P1;durP2;ratioP2;P2;SDS_P1;SDS_P2;PMS_P1;PMS_P2;Temp;Humidity;BMP_temperature;BMP_pressure;BME280_temperature;BME280_humidity;BME280_pressure;Samples;Min_cycle;Max_cycle;Signal;HPM_P1;HPM_P2
2022/08/21 00:01:56;;;;;;;14.02;3.80;;;14.70;99.90;;;14.01;100.00;101440.81;4137882;28;20154;-75
2022/08/21 00:03:57;;;;;;;9.13;2.75;;;14.70;99.90;;;13.93;100.00;101426.69;4120301;28;20114;-75
2022/08/21 00:05:58;;;;;;;11.75;2.67;;;14.60;99.90;;;14.00;100.00;101435.69;4136709;28;20037;-75
2022/08/21 00:07:59;;;;;;;10.52;2.90;;;14.60;99.90;;;13.93;100.00;101429.34;4137616;28;20054;-75
2022/08/21 00:10:00;;;;;;;13.43;3.47;;;14.60;99.90;;;13.94;100.00;101434.50;4137543;28;20509;-75
2022/08/21 00:12:01;;;;;;;9.73;2.85;;;14.60;99.90;;;13.86;100.00;101426.50;4136380;28;20029;-75
2022/08/21 00:14:06;;;;;;;11.52;3.38;;;14.50;99.90;;;13.85;100.00;101419.56;4136234;28;20030;-76
2022/08/21 00:16:07;;;;;;;9.45;2.58;;;14.50;99.90;;;13.85;100.00;101417.72;4120530;28;20430;-75
2022/08/21 00:18:10;;;;;;;10.20;3.08;;;14.50;99.90;;;13.79;100.00;101399.81;4137658;28;20035;-76
2022/08/21 00:20:15;;;;;;;12.05;3.63;;;14.60;99.90;;;13.91;100.00;101420.72;4136226;28;20053;-76
2022/08/21 00:22:17;;;;;;;10.65;3.00;;;14.60;99.90;;;13.93;100.00;101430.19;4136842;28;20034;-75
2022/08/21 00:24:19;;;;;;;10.20;3.40;;;14.60;99.90;;;13.95;100.00;101428.19;4136442;28;20022;-75
2022/08/21 00:26:20;;;;;;;11.73;3.33;;;14.50;99.90;;;13.98;100.00;101432.38;4131012;28;20421;-75
2022/08/21 00:28:21;;;;;;;10.27;3.53;;;14.50;99.90;;;13.83;100.00;101408.25;4117880;28;20058;-75
2022/08/21 00:30:25;;;;;;;8.48;2.55;;;14.50;99.90;;;13.93;100.00;101424.03;4136121;28;20030;-75
2022/08/21 00:32:28;;;;;;;16.98;2.97;;;14.50;99.90;;;13.99;100.00;101434.00;4136160;28;20029;-75
2022/08/21 00:34:28;;;;;;;8.30;3.08;;;14.50;99.90;;;13.91;100.00;101418.91;4152356;28;20038;-75
2022/08/21 00:36:29;;;;;;;9.80;3.22;;;14.50;99.90;;;13.96;100.00;101434.31;4118215;28;20126;-75
2022/08/21 00:38:31;;;;;;;7.60;2.67;;;14.50;99.90;;;13.88;100.00;101411.28;4135946;28;20477;-75
2022/08/21 00:40:52;;;;;;;8.20;2.97;;;14.50;99.90;;;13.94;100.00;101421.25;4137162;28;20030;-75
2022/08/21 00:42:53;;;;;;;8.57;3.10;;;14.50;99.90;;;13.96;100.00;101427.22;4137308;28;20034;-75
2022/08/21 00:44:54;;;;;;;9.68;2.67;;;14.50;99.90;;;13.77;100.00;101399.13;4136989;28;20451;-75
2022/08/21 00:46:55;;;;;;;11.05;2.88;;;14.50;99.90;;;13.78;100.00;101402.59;4119942;28;20035;-75
2022/08/21 00:48:56;;;;;;;10.57;3.17;;;14.50;99.90;;;13.73;100.00;101389.84;4136982;28;20026;-75
2022/08/21 00:51:13;;;;;;;10.57;3.83;;;14.50;99.90;;;13.90;100.00;101419.88;4119535;28;20031;-75
2022/08/21 00:53:15;;;;;;;12.75;2.78;;;14.50;99.90;;;13.91;100.00;101410.94;4134693;28;20043;-75
2022/08/21 00:55:17;;;;;;;12.15;3.42;;;14.50;99.90;;;13.70;100.00;101376.06;4137109;28;20034;-76
2022/08/21 00:57:27;;;;;;;11.70;3.70;;;14.50;99.90;;;13.88;100.00;101421.88;4119669;28;20023;-75
2022/08/21 00:59:35;;;;;;;11.65;3.58;;;14.50;99.90;;;13.75;100.00;101398.47;4134929;28;20042;-75
2022/08/21 01:01:36;;;;;;;12.25;2.92;;;14.50;99.90;;;13.83;100.00;101419.69;4135741;28;20517;-75
2022/08/21 01:03:38;;;;;;;14.55;3.80;;;14.50;99.90;;;13.81;100.00;101412.91;4137210;28;20466;-75
2022/08/21 01:05:40;;;;;;;10.32;3.63;;;14.40;99.90;;;13.77;100.00;101393.81;4136775;28;20034;-75
2022/08/21 01:07:42;;;;;;;13.02;3.33;;;14.50;99.90;;;13.76;100.00;101384.22;4119611;28;20056;-75
2022/08/21 01:09:46;;;;;;;11.75;3.25;;;14.50;99.90;;;13.93;100.00;101408.97;4119572;28;20034;-76
2022/08/21 01:11:47;;;;;;;6.85;2.72;;;14.40;99.90;;;13.75;100.00;101390.50;4119300;28;20033;-75
2022/08/21 01:13:49;;;;;;;8.98;3.95;;;14.40;99.90;;;13.70;100.00;101376.06;4117071;28;20090;-75
2022/08/21 01:15:53;;;;;;;10.95;2.78;;;14.50;99.90;;;13.67;100.00;101365.78;4135387;28;20033;-75
2022/08/21 01:17:54;;;;;;;14.50;3.13;;;14.50;99.90;;;13.85;100.00;101388.56;4136552;28;20033;-75
2022/08/21 01:20:01;;;;;;;9.85;3.33;;;14.40;99.90;;;13.65;100.00;101368.59;4135456;28;20113;-75
2022/08/21 01:22:03;;;;;;;13.00;3.55;;;14.50;99.90;;;13.68;100.00;101378.88;4134035;28;20018;-75
2022/08/21 01:24:05;;;;;;;8.55;2.88;;;14.40;99.90;;;13.71;100.00;101375.06;4135491;28;20478;-76
2022/08/21 01:26:07;;;;;;;11.35;3.55;;;14.40;99.90;;;13.69;100.00;101372.59;4129476;28;20037;-75
2022/08/21 01:28:13;;;;;;;4.28;2.40;;;14.40;99.90;;;13.71;100.00;101385.66;4136606;28;20105;-75
2022/08/21 01:30:24;;;;;;;10.40;3.25;;;14.40;99.90;;;13.62;100.00;101368.91;4119009;28;20474;-75
2022/08/21 01:32:26;;;;;;;13.88;2.90;;;14.30;99.90;;;13.55;100.00;101372.38;4119363;28;20560;-75
2022/08/21 01:34:27;;;;;;;8.75;3.50;;;14.30;99.90;;;13.62;100.00;101397.25;4135430;28;20023;-76
2022/08/21 01:36:28;;;;;;;9.23;2.67;;;14.30;99.90;;;13.51;100.00;101382.47;4119409;28;20553;-76
2022/08/21 01:38:29;;;;;;;9.43;2.80;;;14.20;99.90;;;13.46;100.00;101362.72;4135172;28;20027;-76
2022/08/21 01:40:30;;;;;;;5.68;2.13;;;14.20;99.90;;;13.48;100.00;101372.19;4136298;28;20038;-76
2022/08/21 01:42:31;;;;;;;13.68;2.85;;;14.20;99.90;;;13.61;100.00;101400.91;4136564;28;20080;-75
2022/08/21 01:44:33;;;;;;;9.50;3.58;;;14.20;99.90;;;13.52;100.00;101380.66;4134791;28;20026;-75
2022/08/21 01:46:34;;;;;;;7.90;2.40;;;14.20;99.90;;;13.47;100.00;101378.47;4135263;28;20031;-75
2022/08/21 01:48:35;;;;;;;8.88;2.95;;;14.20;99.90;;;13.53;100.00;101398.22;4119014;28;20035;-75
2022/08/21 01:50:36;;;;;;;7.97;2.65;;;14.20;99.90;;;13.49;100.00;101405.66;4119220;28;20033;-75
2022/08/21 01:52:38;;;;;;;10.40;3.13;;;14.10;99.90;;;13.35;100.00;101384.22;4133281;28;20566;-75
2022/08/21 01:54:40;;;;;;;12.02;3.58;;;14.10;99.90;;;13.36;100.00;101383.22;4134901;28;20025;-75
2022/08/21 01:56:49;;;;;;;7.75;2.95;;;14.10;99.90;;;13.29;100.00;101383.84;4135169;28;20035;-75
2022/08/21 01:58:50;;;;;;;11.32;3.55;;;14.10;99.90;;;13.32;100.00;101396.78;4135061;28;20477;-75
2022/08/21 02:00:51;;;;;;;9.82;2.97;;;14.00;99.90;;;13.27;100.00;101387.63;4134906;28;20035;-75
2022/08/21 02:02:52;;;;;;;12.35;3.00;;;14.00;99.90;;;13.33;100.00;101389.66;4135103;28;20053;-75
2022/08/21 02:04:53;;;;;;;8.63;3.15;;;13.90;99.90;;;13.10;100.00;101362.88;4109610;28;20061;-75
2022/08/21 02:06:54;;;;;;;8.05;2.92;;;13.90;99.90;;;13.24;100.00;101404.69;4135423;28;20019;-75
2022/08/21 02:08:55;;;;;;;6.95;2.60;;;13.90;99.90;;;13.08;100.00;101386.03;4134762;28;20042;-75
2022/08/21 02:10:56;;;;;;;7.50;2.13;;;13.90;99.90;;;13.06;100.00;101392.44;4134963;28;20030;-75
2022/08/21 02:13:00;;;;;;;8.73;2.40;;;13.80;99.90;;;12.99;100.00;101379.00;4127617;28;20041;-75
2022/08/21 03:06:43;;;;;;;;;;;;;;;;;;;;;
2022/08/21 03:24:11;;;;;;;;;;;;;;;;;;;;;
2022/08/21 03:47:21;;;;;;;;;;;;;;;;;;;;;
2022/08/21 06:03:22;;;;;;;;;;;;;;;;;;;;;
2022/08/21 06:50:21;;;;;;;;;;;;;;;;;;;;;
2022/08/21 07:04:14;;;;;;;;;;;;;;;;;;;;;
2022/08/21 16:14:07;;;;;;;0.95;0.50;;;24.80;99.90;;;23.59;81.75;101178.34;3072143;28;20498;-77
2022/08/21 16:16:14;;;;;;;1.17;0.43;;;24.80;99.90;;;23.62;79.23;101185.94;3936560;30;20036;-77
2022/08/21 16:18:17;;;;;;;1.33;0.55;;;24.80;99.90;;;23.56;80.32;101177.97;3931598;30;20063;-77
2022/08/21 16:20:26;;;;;;;2.85;0.47;;;24.80;99.90;;;23.51;78.90;101175.13;3936570;30;20047;-76
2022/08/21 16:22:27;;;;;;;2.47;0.80;;;24.80;99.90;;;23.71;82.33;101170.28;3927354;30;20032;-77
2022/08/21 16:24:28;;;;;;;1.25;0.60;;;24.80;99.90;;;23.29;78.70;101171.31;3936251;30;20032;-77
2022/08/21 16:26:30;;;;;;;2.85;0.50;;;24.70;99.90;;;23.27;78.14;101165.31;3937510;30;20032;-77
2022/08/21 16:28:33;;;;;;;2.92;0.75;;;24.60;99.90;;;23.15;78.81;101179.56;3935845;30;20175;-77
2022/08/21 16:30:34;;;;;;;1.23;0.60;;;24.40;99.90;;;23.19;80.30;101166.47;3951007;30;20032;-77
2022/08/21 16:32:35;;;;;;;2.85;0.90;;;24.30;99.90;;;23.15;78.97;101170.66;3936535;30;20425;-77
2022/08/21 16:34:42;;;;;;;4.70;0.98;;;24.30;99.90;;;22.97;77.50;101160.75;3937196;30;20051;-77
2022/08/21 16:36:43;;;;;;;3.80;0.68;;;24.20;99.90;;;22.73;76.32;101150.91;3950566;30;20132;-77
2022/08/21 16:38:44;;;;;;;3.80;0.50;;;24.00;99.90;;;22.71;78.38;101162.94;3937346;30;20036;-76
2022/08/21 16:40:45;;;;;;;1.42;0.57;;;23.80;99.90;;;22.44;79.91;101159.72;3936202;30;20039;-77
2022/08/21 16:42:47;;;;;;;1.23;0.47;;;23.70;99.90;;;22.51;79.37;101163.16;3936180;30;20040;-77
2022/08/21 16:44:48;;;;;;;1.77;0.50;;;23.60;99.90;;;22.86;79.37;101177.66;3935890;30;20060;-77
2022/08/21 16:46:49;;;;;;;3.78;0.65;;;23.70;99.90;;;22.83;77.51;101172.72;3937193;30;20036;-77
2022/08/21 16:48:50;;;;;;;2.97;0.80;;;23.80;99.90;;;23.03;77.01;101189.44;3935796;30;20028;-77
2022/08/21 16:50:51;;;;;;;2.83;0.75;;;23.90;99.90;;;22.94;75.89;101180.03;3937097;30;20098;-77
2022/08/21 16:52:53;;;;;;;4.63;0.93;;;23.90;99.90;;;22.88;76.75;101164.78;3935820;30;20040;-77
2022/08/21 16:54:55;;;;;;;2.38;0.88;;;23.90;99.90;;;22.90;75.92;101178.03;3927064;30;20032;-77
2022/08/21 16:56:58;;;;;;;1.63;0.75;;;23.90;99.90;;;22.86;77.16;101168.75;3937048;30;20040;-77
2022/08/21 16:58:59;;;;;;;;;;;23.80;99.90;;;22.87;75.79;101190.06;3950704;30;20040;-77
2022/08/21 17:01:06;;;;;;;2.13;0.68;;;23.80;99.90;;;22.69;76.80;101191.94;3935976;30;19921;-77
2022/08/21 17:03:15;;;;;;;1.75;0.47;;;23.70;99.90;;;22.65;77.69;101175.44;3926416;30;20035;-76
2022/08/21 17:05:16;;;;;;;4.32;0.90;;;23.60;99.90;;;22.55;80.02;101175.91;3936110;30;20032;-77
2022/08/21 17:07:17;;;;;;;1.33;0.57;;;23.50;99.90;;;22.49;79.51;101197.53;3936780;30;20086;-77
2022/08/21 17:09:18;;;;;;;1.40;0.40;;;23.40;99.90;;;22.47;80.75;101204.97;3936096;30;20448;-77
2022/08/21 17:11:28;;;;;;;6.45;0.80;;;23.30;99.90;;;22.19;80.25;101200.06;3936912;30;20078;-77
2022/08/21 17:13:29;;;;;;;1.77;0.70;;;23.10;99.90;;;21.95;80.89;101182.91;3936378;30;20052;-77
2022/08/21 17:15:36;;;;;;;4.07;0.60;;;23.00;99.90;;;21.78;81.75;101164.84;3936646;30;20067;-77
2022/08/21 17:17:37;;;;;;;3.58;0.93;;;22.80;99.90;;;21.73;83.57;101170.91;3936878;30;20036;-77
2022/08/21 17:19:39;;;;;;;2.33;0.75;;;22.60;99.90;;;21.76;100.00;101175.81;3950406;30;20039;-76
2022/08/21 17:21:40;;;;;;;1.35;0.40;;;22.60;99.90;;;21.76;89.05;101172.31;3935487;30;20024;-77
2022/08/21 17:23:41;;;;;;;4.60;1.48;;;22.60;99.90;;;21.76;86.85;101159.72;3921082;30;20033;-77
2022/08/21 17:25:48;;;;;;;1.65;0.65;;;22.60;99.90;;;21.79;85.79;101153.91;3935532;30;20134;-77
2022/08/21 17:27:49;;;;;;;2.13;0.80;;;22.70;99.90;;;21.82;86.00;101160.69;3935202;30;20560;-77
2022/08/21 17:29:51;;;;;;;3.47;1.20;;;22.70;99.90;;;21.94;86.05;101162.50;3935754;30;20044;-77
2022/08/21 17:31:52;;;;;;;3.88;1.05;;;22.80;99.90;;;22.04;84.40;101181.59;3936449;30;20519;-77
2022/08/21 17:33:53;;;;;;;1.63;0.60;;;22.80;99.90;;;22.12;84.75;101171.63;3949946;30;20036;-77
2022/08/21 17:35:54;;;;;;;5.63;0.85;;;22.90;99.90;;;21.87;82.12;101142.88;3936076;30;20489;-77
2022/08/21 17:37:55;;;;;;;2.10;0.70;;;23.00;99.90;;;22.01;83.19;101157.84;3936471;30;20067;-77
2022/08/21 17:39:56;;;;;;;2.33;0.75;;;23.00;99.90;;;22.07;84.03;101174.16;3925681;30;20063;-77
2022/08/21 17:42:03;;;;;;;4.97;0.90;;;23.00;99.90;;;21.95;83.86;101174.06;3935259;30;20131;-77
2022/08/21 17:44:08;;;;;;;3.55;1.02;;;22.90;99.90;;;21.79;84.57;101169.19;3949514;30;20035;-77
2022/08/21 17:46:16;;;;;;;3.45;1.42;;;22.70;99.90;;;21.49;87.19;101163.63;3949765;30;20042;-77
2022/08/21 17:48:17;;;;;;;5.30;0.60;;;22.60;99.90;;;21.11;87.41;101154.78;3950036;30;20067;-77
2022/08/21 17:50:18;;;;;;;3.20;0.50;;;22.30;99.90;;;21.26;88.91;101184.84;3950247;30;20416;-77
2022/08/21 17:52:20;;;;;;;3.30;1.05;;;22.10;99.90;;;21.06;90.32;101157.25;3935201;30;20124;-77
2022/08/21 17:54:24;;;;;;;3.22;1.02;;;22.00;99.90;;;21.07;91.35;101185.72;3934067;30;20056;-77
2022/08/21 17:56:32;;;;;;;2.35;0.88;;;21.80;99.90;;;20.82;92.63;101154.25;3949910;30;20516;-76
2022/08/21 17:58:34;;;;;;;3.58;0.95;;;21.70;99.90;;;20.72;92.46;101145.88;3936054;30;20036;-77
2022/08/21 18:00:35;;;;;;;4.10;1.13;;;21.60;99.90;;;20.49;92.80;101145.50;3936352;30;20132;-77
2022/08/21 18:02:37;;;;;;;2.67;0.70;;;21.40;99.90;;;20.40;94.39;101144.09;3936129;30;20058;-76
2022/08/21 18:04:38;;;;;;;3.60;0.82;;;21.30;99.90;;;20.26;95.51;101142.50;3949863;30;20040;-76
2022/08/21 18:06:40;;;;;;;4.28;1.20;;;21.20;99.90;;;20.41;95.60;101164.50;3936235;30;20051;-76
2022/08/21 18:08:41;;;;;;;2.97;1.15;;;21.20;99.90;;;20.26;95.32;101139.81;3949731;30;20038;-76
2022/08/21 18:10:47;;;;;;;3.90;0.88;;;21.20;99.90;;;20.22;95.16;101131.34;3936037;30;20506;-76
2022/08/21 18:12:48;;;;;;;4.20;1.30;;;21.20;99.90;;;20.15;95.03;101121.69;3949806;30;20181;-77
2022/08/21 18:14:49;;;;;;;2.55;1.33;;;21.10;99.90;;;20.18;95.44;101140.00;3936421;30;20517;-76
2022/08/21 18:16:50;;;;;;;3.25;0.82;;;21.00;99.90;;;20.11;97.12;101145.38;3936134;30;20036;-76
2022/08/21 18:18:51;;;;;;;3.83;1.60;;;21.00;99.90;;;20.15;97.89;101156.50;3949877;30;20043;-76
2022/08/21 18:20:54;;;;;;;3.65;0.90;;;21.00;99.90;;;19.99;98.64;101116.75;3936330;30;20036;-77
2022/08/21 18:22:55;;;;;;;3.75;0.98;;;20.90;99.90;;;20.15;98.61;101143.94;3936111;30;20032;-76
2022/08/21 18:24:56;;;;;;;1.98;0.80;;;20.90;99.90;;;20.03;98.79;101118.00;3935989;30;20037;-76
2022/08/21 18:26:57;;;;;;;4.07;0.98;;;20.90;99.90;;;20.17;98.66;101138.34;3935970;30;20036;-77
2022/08/21 18:29:00;;;;;;;3.08;0.70;;;20.90;99.90;;;20.02;98.45;101111.81;3949438;30;20111;-77
2022/08/21 18:31:01;;;;;;;2.90;1.20;;;20.90;99.90;;;20.07;98.55;101124.59;3949636;30;20136;-76
2022/08/21 18:33:02;;;;;;;5.05;1.00;;;20.90;99.90;;;19.98;99.18;101120.47;3935976;30;20088;-77
2022/08/21 18:35:05;;;;;;;3.53;0.80;;;20.80;99.90;;;19.79;100.00;101124.81;3935860;30;20040;-77
2022/08/21 18:37:08;;;;;;;3.30;0.77;;;20.70;99.90;;;19.60;100.00;101129.13;3949717;30;20034;-77
2022/08/21 18:39:08;;;;;;;2.80;0.90;;;20.60;99.90;;;19.66;100.00;101154.25;3949355;30;20085;-76
2022/08/21 18:41:10;;;;;;;3.78;1.25;;;20.40;99.90;;;19.52;100.00;101156.09;3935851;30;20028;-77
2022/08/21 18:43:11;;;;;;;3.78;1.10;;;20.30;99.90;;;19.38;100.00;101154.41;3949228;30;20093;-77
2022/08/21 18:45:17;;;;;;;4.25;1.00;;;20.20;99.90;;;19.16;100.00;101137.69;3949591;30;20503;-77
2022/08/21 18:47:27;;;;;;;2.28;0.93;;;20.10;99.90;;;19.28;100.00;101175.38;3952029;30;20044;-76
2022/08/21 18:49:28;;;;;;;2.08;0.85;;;20.00;99.90;;;19.07;100.00;101148.78;3951924;30;20095;-76
2022/08/21 18:51:29;;;;;;;4.00;0.98;;;19.90;99.90;;;19.09;100.00;101168.09;3952398;30;20046;-76
2022/08/21 18:53:30;;;;;;;2.80;1.20;;;19.90;99.90;;;18.95;100.00;101158.41;3938798;30;20067;-77
2022/08/21 18:55:34;;;;;;;2.25;0.85;;;19.80;99.90;;;18.93;100.00;101155.09;3952847;30;20085;-76
2022/08/21 18:57:38;;;;;;;1.88;0.95;;;19.80;99.90;;;18.96;100.00;101160.06;3938813;30;20031;-76
2022/08/21 18:59:41;;;;;;;2.47;0.98;;;19.70;99.90;;;18.90;100.00;101160.84;3951897;30;20089;-76
2022/08/21 19:01:42;;;;;;;4.00;1.13;;;19.70;99.90;;;18.87;100.00;101171.94;3938717;30;20030;-76
2022/08/21 19:03:43;;;;;;;3.30;1.20;;;19.60;99.90;;;18.81;100.00;101172.75;3952275;30;20032;-76
2022/08/21 19:05:46;;;;;;;3.25;1.10;;;19.60;99.90;;;18.91;100.00;101202.59;3938525;30;20058;-76
2022/08/21 19:07:47;;;;;;;5.50;0.98;;;19.50;99.90;;;18.75;100.00;101169.84;3938706;30;20405;-77
2022/08/21 19:09:48;;;;;;;2.05;0.90;;;19.50;99.90;;;18.71;100.00;101176.59;3937447;30;20040;-77
2022/08/21 19:11:49;;;;;;;5.43;1.25;;;19.50;99.90;;;18.78;100.00;101193.50;3951928;30;20055;-76
2022/08/21 19:13:52;;;;;;;6.70;1.50;;;19.50;99.90;;;18.89;100.00;101205.47;3938131;30;20411;-76
2022/08/21 19:15:54;;;;;;;5.68;1.42;;;19.50;99.90;;;18.82;100.00;101199.25;3952124;30;20130;-77
2022/08/21 19:17:56;;;;;;;3.92;1.70;;;19.50;99.90;;;18.79;100.00;101184.44;3937389;30;20539;-76
2022/08/21 19:20:11;;;;;;;4.05;1.23;;;19.50;99.90;;;18.73;100.00;101179.06;3934235;30;20035;-76
2022/08/21 19:22:12;;;;;;;2.50;0.93;;;19.50;99.90;;;18.72;100.00;101183.59;3937045;30;20028;-77
2022/08/21 19:24:13;;;;;;;5.90;1.58;;;19.40;99.90;;;18.77;100.00;101189.19;3938405;30;20075;-77
2022/08/21 19:26:16;;;;;;;3.80;1.40;;;19.40;99.90;;;18.70;100.00;101174.94;3938162;30;20045;-77
2022/08/21 19:28:31;;;;;;;5.05;1.13;;;19.40;99.90;;;18.78;100.00;101187.34;3936938;30;20044;-76
2022/08/21 19:30:32;;;;;;;4.90;1.35;;;19.40;99.90;;;18.67;100.00;101179.84;3927442;30;20036;-77
2022/08/21 19:32:34;;;;;;;2.38;1.10;;;19.40;99.90;;;18.59;100.00;101175.50;3931248;30;20171;-77
2022/08/21 19:34:37;;;;;;;3.40;0.88;;;19.30;99.90;;;18.59;100.00;101188.88;3951986;30;20035;-77
2022/08/21 19:36:39;;;;;;;4.70;1.20;;;19.30;99.90;;;18.70;100.00;101214.19;3936995;30;20055;-77
2022/08/21 19:38:41;;;;;;;4.43;1.40;;;19.30;99.90;;;18.58;100.00;101189.06;3922341;30;20098;-76
2022/08/21 19:40:42;;;;;;;3.15;1.00;;;19.30;99.90;;;18.65;100.00;101201.44;3931570;30;20039;-77
2022/08/21 19:42:43;;;;;;;4.75;1.40;;;19.30;99.90;;;18.54;100.00;101187.81;3938102;30;20132;-76
2022/08/21 19:44:44;;;;;;;3.10;1.20;;;19.30;99.90;;;18.53;100.00;101188.84;3936669;30;20105;-77
2022/08/21 19:46:47;;;;;;;5.03;1.52;;;19.30;99.90;;;18.60;100.00;101200.41;3927293;30;20421;-77
2022/08/21 19:48:48;;;;;;;5.82;1.30;;;19.30;99.90;;;18.52;100.00;101197.84;3930384;30;20044;-77
2022/08/21 19:50:50;;;;;;;3.53;1.33;;;19.30;99.90;;;18.58;100.00;101211.25;3951502;30;20125;-77
2022/08/21 19:52:51;;;;;;;4.15;1.33;;;19.30;99.90;;;18.51;100.00;101202.41;3937990;30;20038;-77
2022/08/21 19:54:52;;;;;;;3.38;1.10;;;19.30;99.90;;;18.61;100.00;101218.88;3936922;30;20394;-77
2022/08/21 19:56:57;;;;;;;2.72;1.05;;;19.30;99.90;;;18.55;100.00;101202.81;3936730;30;20101;-77
2022/08/21 19:58:58;;;;;;;3.72;1.08;;;19.30;99.90;;;18.54;100.00;101204.69;3935737;30;20036;-77
2022/08/21 20:01:01;;;;;;;3.03;1.60;;;19.30;99.90;;;18.64;100.00;101220.34;3922262;30;20071;-76
2022/08/21 20:03:03;;;;;;;7.90;2.30;;;19.30;99.90;;;18.63;100.00;101222.22;3936661;30;20074;-77
2022/08/21 20:05:05;;;;;;;3.60;1.35;;;19.30;99.90;;;18.70;100.00;101233.75;3936786;30;20500;-76
2022/08/21 20:07:06;;;;;;;2.83;1.10;;;19.30;99.90;;;18.53;100.00;101207.53;3937843;30;20063;-76
2022/08/21 20:09:08;;;;;;;3.20;0.90;;;19.30;99.90;;;18.61;100.00;101218.88;3937673;30;20402;-76
2022/08/21 20:11:11;;;;;;;5.78;1.60;;;19.30;99.90;;;18.59;100.00;101218.25;3951527;30;20184;-77
2022/08/21 20:13:12;;;;;;;2.63;1.27;;;19.30;99.90;;;18.61;100.00;101216.22;3950719;30;20588;-76
2022/08/21 20:15:18;;;;;;;5.40;1.45;;;19.30;99.90;;;18.53;100.00;101210.22;3951230;30;20040;-76
2022/08/21 20:17:20;;;;;;;3.63;1.20;;;19.20;99.90;;;18.58;100.00;101224.63;3936521;30;20187;-76
2022/08/21 20:19:21;;;;;;;4.05;1.38;;;19.30;99.90;;;18.54;100.00;101223.38;3927983;30;20032;-77
2022/08/21 20:21:22;;;;;;;4.63;1.67;;;19.20;99.90;;;18.52;100.00;101225.41;3931620;30;20378;-77
2022/08/21 20:23:23;;;;;;;5.22;1.35;;;19.20;99.90;;;18.53;100.00;101224.41;3951174;30;20061;-77
2022/08/21 20:25:28;;;;;;;4.05;1.52;;;19.30;99.90;;;18.46;100.00;101214.63;3937324;30;20036;-77
2022/08/21 20:27:29;;;;;;;2.70;1.40;;;19.20;99.90;;;18.53;100.00;101227.06;3937511;30;20442;-76
2022/08/21 20:29:32;;;;;;;3.80;1.55;;;19.20;99.90;;;18.50;100.00;101216.78;3935966;30;20413;-77
2022/08/21 20:31:32;;;;;;;4.28;1.65;;;19.20;99.90;;;18.53;100.00;101218.22;3934753;30;20047;-77
2022/08/21 20:33:33;;;;;;;3.42;1.30;;;19.20;99.90;;;18.49;100.00;101206.25;3951227;30;20032;-77
2022/08/21 20:35:35;;;;;;;5.57;1.48;;;19.20;99.90;;;18.52;100.00;101217.38;3937418;30;20401;-77
2022/08/21 20:37:36;;;;;;;4.20;1.25;;;19.30;99.90;;;18.49;100.00;101207.09;3951058;30;20052;-76
2022/08/21 20:39:37;;;;;;;7.25;1.98;;;19.20;99.90;;;18.50;100.00;101210.59;3937221;30;20029;-76
2022/08/21 20:41:38;;;;;;;2.70;1.13;;;19.20;99.90;;;18.44;100.00;101206.84;3951434;30;20031;-77
2022/08/21 20:43:40;;;;;;;3.95;1.17;;;19.20;99.90;;;18.59;100.00;101228.13;3935938;30;20536;-77
2022/08/21 20:45:41;;;;;;;3.42;1.15;;;19.20;99.90;;;18.43;100.00;101209.72;3936094;30;20513;-77
2022/08/21 20:47:42;;;;;;;1.83;1.00;;;19.20;99.90;;;18.45;100.00;101219.19;3950760;30;20032;-77
2022/08/21 20:49:54;;;;;;;3.83;1.45;;;19.20;99.90;;;18.53;100.00;101229.75;3937034;30;20109;-76
2022/08/21 20:51:58;;;;;;;4.13;1.60;;;19.20;99.90;;;18.47;100.00;101217.13;3950685;30;20039;-77
2022/08/21 20:55:01;;;;;;;9.77;2.00;;;19.20;99.90;;;18.57;100.00;101235.53;3950675;30;20038;-76
2022/08/21 20:57:31;;;;;;;6.55;1.30;;;19.20;99.90;;;18.57;100.00;101232.84;3940951;30;20422;-77
2022/08/21 20:59:32;;;;;;;4.65;1.65;;;19.20;99.90;;;18.52;100.00;101232.59;3936622;30;20044;-77
2022/08/21 21:01:34;;;;;;;3.85;1.65;;;19.20;99.90;;;18.38;100.00;101212.13;3935810;30;20130;-77
2022/08/21 21:03:54;;;;;;;5.57;2.55;;;19.10;99.90;;;18.51;100.00;101234.47;3929571;30;20055;-77
2022/08/21 21:06:02;;;;;;;2.30;1.02;;;19.10;99.90;;;18.37;100.00;101211.28;3949410;30;20035;-77
2022/08/21 21:08:05;;;;;;;5.10;1.25;;;19.10;99.90;;;18.54;100.00;101243.94;3950355;30;20039;-76
2022/08/21 21:10:19;;;;;;;3.00;1.00;;;19.10;99.90;;;18.38;100.00;101206.78;3936280;30;20436;-76
2022/08/21 21:12:32;;;;;;;4.43;1.58;;;19.10;99.90;;;18.39;100.00;101197.75;3935433;30;20493;-77
2022/08/21 21:14:44;;;;;;;5.03;1.48;;;19.10;99.90;;;18.53;100.00;101232.41;3927305;30;20068;-77
2022/08/21 21:16:54;;;;;;;4.03;1.52;;;19.10;99.90;;;18.40;100.00;101204.75;3933189;30;20173;-77
2022/08/21 21:19:05;;;;;;;3.15;1.42;;;19.10;99.90;;;18.39;100.00;101203.09;3950273;30;20024;-77
2022/08/21 21:21:33;;;;;;;3.38;1.42;;;19.10;99.90;;;18.32;100.00;101196.88;3950291;30;20473;-77
2022/08/21 21:23:48;;;;;;;5.78;1.48;;;19.10;99.90;;;18.48;100.00;101223.31;3947906;30;20032;-77
2022/08/21 21:26:06;;;;;;;5.07;1.50;;;19.10;99.90;;;18.45;100.00;101224.53;3940627;30;20040;-77
2022/08/21 21:28:16;;;;;;;4.78;1.15;;;19.10;99.90;;;18.42;100.00;101208.06;3936429;30;20586;-77
2022/08/21 21:30:35;;;;;;;5.07;2.20;;;19.00;99.90;;;18.35;100.00;101188.47;3949936;30;20040;-76
2022/08/21 21:32:37;;;;;;;5.65;1.50;;;19.10;99.90;;;18.32;100.00;101191.53;3935883;30;20417;-77
2022/08/21 21:34:44;;;;;;;3.03;1.13;;;19.10;99.90;;;18.43;100.00;101199.84;3936489;30;20409;-76
2022/08/21 21:37:20;;;;;;;4.93;1.80;;;19.10;99.90;;;18.33;100.00;101188.69;3950193;30;20093;-77
2022/08/21 21:39:36;;;;;;;4.68;1.55;;;19.00;99.90;;;18.39;100.00;101195.09;3934196;30;20032;-77
2022/08/21 21:42:13;;;;;;;4.90;1.42;;;19.00;99.90;;;18.23;100.00;101177.50;3936063;30;20035;-77
2022/08/21 21:44:53;;;;;;;6.22;1.67;;;19.00;99.90;;;18.15;100.00;101164.31;3947937;30;20455;-77
2022/08/21 21:47:53;;;;;;;5.45;1.38;;;18.90;99.90;;;18.16;100.00;101179.31;3935663;30;20512;-77
2022/08/21 21:50:31;;;;;;;5.28;1.60;;;18.90;99.90;;;18.19;100.00;101179.75;3924261;30;20064;-77
2022/08/21 21:52:54;;;;;;;5.22;2.03;;;18.90;99.90;;;18.17;100.00;101186.31;3949039;30;20040;-76
2022/08/21 21:55:48;;;;;;;2.53;1.10;;;18.80;99.90;;;17.93;100.00;101152.03;3936581;30;20032;-77
2022/08/21 21:58:28;;;;;;;2.92;1.45;;;18.80;99.90;;;17.92;100.00;101161.06;3947856;30;20036;-77
2022/08/21 22:00:34;;;;;;;7.25;1.90;;;18.70;99.90;;;18.04;100.00;101186.22;3947744;30;20105;-77
2022/08/21 22:02:44;;;;;;;2.50;1.50;;;18.70;99.90;;;17.98;100.00;101176.31;3936369;30;20032;-77
2022/08/21 22:05:27;;;;;;;6.78;2.17;;;18.60;99.90;;;17.94;100.00;101185.72;3936357;30;20032;-76
2022/08/21 22:08:00;;;;;;;3.42;1.20;;;18.60;99.90;;;17.79;100.00;101169.78;3952492;30;20045;-76
2022/08/21 22:10:19;;;;;;;5.65;1.52;;;18.50;99.90;;;17.81;100.00;101177.59;3936235;30;20608;-76
2022/08/21 22:12:58;;;;;;;6.13;1.80;;;18.50;99.90;;;17.86;100.00;101191.22;3948698;30;20039;-77
2022/08/21 22:14:59;;;;;;;8.65;2.35;;;18.40;99.90;;;17.67;100.00;101166.81;3936234;30;20115;-77
2022/08/21 22:17:16;;;;;;;8.05;1.73;;;18.50;99.90;;;17.71;100.00;101161.94;3936068;30;20121;-77
2022/08/21 22:19:41;;;;;;;6.43;1.70;;;18.50;99.90;;;17.71;100.00;101156.59;3935213;30;20577;-76
2022/08/21 22:21:55;;;;;;;4.28;1.38;;;18.50;99.90;;;17.73;100.00;101157.22;3933273;30;20508;-76
2022/08/21 22:24:15;;;;;;;5.03;1.43;;;18.50;99.90;;;17.84;100.00;101175.38;3927557;30;20059;-76
2022/08/21 22:26:21;;;;;;;2.92;1.48;;;18.40;99.90;;;17.63;100.00;101141.53;3937947;30;20195;-76
2022/08/21 22:28:25;;;;;;;3.75;1.75;;;18.40;99.90;;;17.60;100.00;101136.59;3921377;30;20083;-76
2022/08/21 22:31:29;;;;;;;4.43;1.63;;;18.40;99.90;;;17.80;100.00;101173.28;3928853;30;20060;-76
2022/08/21 22:33:30;;;;;;;4.22;1.50;;;18.40;99.90;;;17.67;100.00;101156.16;3943269;30;20059;-76